sensor_id;sensor_type;location;lat;lon;timestamp;temperature;humidity
78767;SHT31;68092;51.982;5.680;2024-01-15T00:01:36;7.9;60.1
78767;SHT31;68092;51.982;5.680;2024-01-15T00:04:05;7.9;59.9
78767;SHT31;68092;51.982;5.680;2024-01-15T00:06:34;7.9;59.7
78767;SHT31;68092;51.982;5.680;2024-01-15T00:09:02;7.9;59.8
78767;SHT31;68092;51.982;5.680;2024-01-15T00:11:33;7.9;59.7
78767;SHT31;68092;51.982;5.680;2024-01-15T00:14:01;7.8;59.7
78767;SHT31;68092;51.982;5.680;2024-01-15T00:16:31;7.8;59.7
78767;SHT31;68092;51.982;5.680;2024-01-15T00:19:01;7.8;59.7
78767;SHT31;68092;51.982;5.680;2024-01-15T00:21:31;7.8;59.7
78767;SHT31;68092;51.982;5.680;2024-01-15T00:24:00;7.7;59.6
78767;SHT31;68092;51.982;5.680;2024-01-15T00:26:29;7.7;59.5
78767;SHT31;68092;51.982;5.680;2024-01-15T00:28:57;7.7;59.5
78767;SHT31;68092;51.982;5.680;2024-01-15T00:31:27;7.7;59.7
78767;SHT31;68092;51.982;5.680;2024-01-15T00:33:58;7.6;59.7
78767;SHT31;68092;51.982;5.680;2024-01-15T00:36:26;7.6;59.8
78767;SHT31;68092;51.982;5.680;2024-01-15T00:38:55;7.6;59.9
78767;SHT31;68092;51.982;5.680;2024-01-15T00:41:24;7.5;60.0
78767;SHT31;68092;51.982;5.680;2024-01-15T00:43:54;7.5;60.1
78767;SHT31;68092;51.982;5.680;2024-01-15T00:46:22;7.5;60.1
78767;SHT31;68092;51.982;5.680;2024-01-15T00:48:52;7.4;60.2
78767;SHT31;68092;51.982;5.680;2024-01-15T00:51:21;7.4;60.1
78767;SHT31;68092;51.982;5.680;2024-01-15T00:53:49;7.4;60.1
78767;SHT31;68092;51.982;5.680;2024-01-15T00:56:18;7.4;60.1
78767;SHT31;68092;51.982;5.680;2024-01-15T00:58:46;7.4;60.1
78767;SHT31;68092;51.982;5.680;2024-01-15T01:01:15;7.4;60.1
78767;SHT31;68092;51.982;5.680;2024-01-15T01:03:43;7.4;60.2
78767;SHT31;68092;51.982;5.680;2024-01-15T01:06:12;7.3;60.3
78767;SHT31;68092;51.982;5.680;2024-01-15T01:08:40;7.3;60.3
78767;SHT31;68092;51.982;5.680;2024-01-15T01:11:12;7.3;60.2
78767;SHT31;68092;51.982;5.680;2024-01-15T01:13:41;7.3;60.1
78767;SHT31;68092;51.982;5.680;2024-01-15T01:16:09;7.4;59.9
78767;SHT31;68092;51.982;5.680;2024-01-15T01:18:38;7.4;59.9
78767;SHT31;68092;51.982;5.680;2024-01-15T01:21:06;7.4;59.8
78767;SHT31;68092;51.982;5.680;2024-01-15T01:23:37;7.4;59.8
78767;SHT31;68092;51.982;5.680;2024-01-15T01:26:05;7.4;60.0
78767;SHT31;68092;51.982;5.680;2024-01-15T01:28:34;7.4;59.8
78767;SHT31;68092;51.982;5.680;2024-01-15T01:31:02;7.4;59.7
78767;SHT31;68092;51.982;5.680;2024-01-15T01:33:31;7.4;59.7
78767;SHT31;68092;51.982;5.680;2024-01-15T01:35:59;7.4;59.4
78767;SHT31;68092;51.982;5.680;2024-01-15T01:38:28;7.4;59.5
78767;SHT31;68092;51.982;5.680;2024-01-15T01:40:56;7.4;59.4
78767;SHT31;68092;51.982;5.680;2024-01-15T01:43:25;7.3;59.4
78767;SHT31;68092;51.982;5.680;2024-01-15T01:45:56;7.3;59.3
78767;SHT31;68092;51.982;5.680;2024-01-15T01:48:25;7.3;59.3
78767;SHT31;68092;51.982;5.680;2024-01-15T01:50:58;7.3;59.3
78767;SHT31;68092;51.982;5.680;2024-01-15T01:53:28;7.3;59.1
78767;SHT31;68092;51.982;5.680;2024-01-15T01:55:57;7.3;59.2
78767;SHT31;68092;51.982;5.680;2024-01-15T01:58:28;7.3;59.0
78767;SHT31;68092;51.982;5.680;2024-01-15T02:00:59;7.3;59.0
78767;SHT31;68092;51.982;5.680;2024-01-15T02:03:30;7.3;58.9
78767;SHT31;68092;51.982;5.680;2024-01-15T02:06:03;7.3;58.6
78767;SHT31;68092;51.982;5.680;2024-01-15T02:08:38;7.3;58.7
78767;SHT31;68092;51.982;5.680;2024-01-15T02:11:07;7.3;58.6
78767;SHT31;68092;51.982;5.680;2024-01-15T02:13:36;7.3;58.5
78767;SHT31;68092;51.982;5.680;2024-01-15T02:16:05;7.3;58.5
78767;SHT31;68092;51.982;5.680;2024-01-15T02:18:41;7.3;58.4
78767;SHT31;68092;51.982;5.680;2024-01-15T02:21:14;7.3;58.4
78767;SHT31;68092;51.982;5.680;2024-01-15T02:23:42;7.3;58.2
78767;SHT31;68092;51.982;5.680;2024-01-15T02:26:12;7.3;58.1
78767;SHT31;68092;51.982;5.680;2024-01-15T02:28:43;7.3;58.3
78767;SHT31;68092;51.982;5.680;2024-01-15T02:31:12;7.3;58.3
78767;SHT31;68092;51.982;5.680;2024-01-15T02:33:42;7.2;58.1
78767;SHT31;68092;51.982;5.680;2024-01-15T02:36:12;7.2;58.3
78767;SHT31;68092;51.982;5.680;2024-01-15T02:38:43;7.2;58.5
78767;SHT31;68092;51.982;5.680;2024-01-15T02:41:12;7.1;58.9
78767;SHT31;68092;51.982;5.680;2024-01-15T02:43:41;7.1;59.1
78767;SHT31;68092;51.982;5.680;2024-01-15T02:46:09;7.1;59.2
78767;SHT31;68092;51.982;5.680;2024-01-15T02:48:38;7.1;59.2
78767;SHT31;68092;51.982;5.680;2024-01-15T02:51:06;7.0;59.3
78767;SHT31;68092;51.982;5.680;2024-01-15T02:53:36;7.0;59.5
78767;SHT31;68092;51.982;5.680;2024-01-15T02:56:09;7.0;59.6
78767;SHT31;68092;51.982;5.680;2024-01-15T02:58:37;7.0;59.8
78767;SHT31;68092;51.982;5.680;2024-01-15T03:01:06;7.0;59.3
78767;SHT31;68092;51.982;5.680;2024-01-15T03:03:34;7.0;59.7
78767;SHT31;68092;51.982;5.680;2024-01-15T03:06:05;7.1;59.6
78767;SHT31;68092;51.982;5.680;2024-01-15T03:08:34;7.1;59.8
78767;SHT31;68092;51.982;5.680;2024-01-15T03:11:03;7.1;59.7
78767;SHT31;68092;51.982;5.680;2024-01-15T03:13:36;7.1;59.8
78767;SHT31;68092;51.982;5.680;2024-01-15T03:16:05;7.1;59.9
78767;SHT31;68092;51.982;5.680;2024-01-15T03:18:34;7.1;59.8
78767;SHT31;68092;51.982;5.680;2024-01-15T03:21:02;7.1;59.9
78767;SHT31;68092;51.982;5.680;2024-01-15T03:23:31;7.2;59.7
78767;SHT31;68092;51.982;5.680;2024-01-15T03:26:01;7.2;59.6
78767;SHT31;68092;51.982;5.680;2024-01-15T03:28:29;7.2;59.4
78767;SHT31;68092;51.982;5.680;2024-01-15T03:31:00;7.2;59.5
78767;SHT31;68092;51.982;5.680;2024-01-15T03:33:29;7.2;59.3
78767;SHT31;68092;51.982;5.680;2024-01-15T03:35:58;7.2;59.4
78767;SHT31;68092;51.982;5.680;2024-01-15T03:38:28;7.2;59.3
78767;SHT31;68092;51.982;5.680;2024-01-15T03:40:57;7.3;59.2
78767;SHT31;68092;51.982;5.680;2024-01-15T03:43:26;7.3;58.8
78767;SHT31;68092;51.982;5.680;2024-01-15T03:45:55;7.3;58.8
78767;SHT31;68092;51.982;5.680;2024-01-15T03:48:24;7.3;58.9
78767;SHT31;68092;51.982;5.680;2024-01-15T03:50:53;7.3;58.7
78767;SHT31;68092;51.982;5.680;2024-01-15T03:53:21;7.3;58.7
78767;SHT31;68092;51.982;5.680;2024-01-15T03:55:50;7.3;58.5
78767;SHT31;68092;51.982;5.680;2024-01-15T03:58:19;7.3;58.5
78767;SHT31;68092;51.982;5.680;2024-01-15T04:00:48;7.4;58.7
78767;SHT31;68092;51.982;5.680;2024-01-15T04:03:16;7.4;58.6
78767;SHT31;68092;51.982;5.680;2024-01-15T04:05:45;7.4;58.7
78767;SHT31;68092;51.982;5.680;2024-01-15T04:08:15;7.4;58.6
78767;SHT31;68092;51.982;5.680;2024-01-15T04:10:44;7.4;58.6
78767;SHT31;68092;51.982;5.680;2024-01-15T04:13:13;7.4;58.5
78767;SHT31;68092;51.982;5.680;2024-01-15T04:15:41;7.4;58.4
78767;SHT31;68092;51.982;5.680;2024-01-15T04:18:09;7.4;58.5
78767;SHT31;68092;51.982;5.680;2024-01-15T04:20:38;7.4;58.7
78767;SHT31;68092;51.982;5.680;2024-01-15T04:23:07;7.4;58.8
78767;SHT31;68092;51.982;5.680;2024-01-15T04:25:35;7.4;59.1
78767;SHT31;68092;51.982;5.680;2024-01-15T04:28:09;7.4;59.0
78767;SHT31;68092;51.982;5.680;2024-01-15T04:30:39;7.4;59.1
78767;SHT31;68092;51.982;5.680;2024-01-15T04:33:07;7.4;59.2
78767;SHT31;68092;51.982;5.680;2024-01-15T04:35:37;7.4;59.1
78767;SHT31;68092;51.982;5.680;2024-01-15T04:38:06;7.4;59.3
78767;SHT31;68092;51.982;5.680;2024-01-15T04:40:34;7.4;59.3
78767;SHT31;68092;51.982;5.680;2024-01-15T04:43:03;7.4;59.5
78767;SHT31;68092;51.982;5.680;2024-01-15T04:45:32;7.4;59.3
78767;SHT31;68092;51.982;5.680;2024-01-15T04:48:00;7.4;59.2
78767;SHT31;68092;51.982;5.680;2024-01-15T04:50:29;7.4;59.2
78767;SHT31;68092;51.982;5.680;2024-01-15T04:53:00;7.4;59.2
78767;SHT31;68092;51.982;5.680;2024-01-15T04:55:28;7.4;59.1
78767;SHT31;68092;51.982;5.680;2024-01-15T04:57:57;7.4;58.9
78767;SHT31;68092;51.982;5.680;2024-01-15T05:00:25;7.4;59.0
78767;SHT31;68092;51.982;5.680;2024-01-15T05:02:54;7.4;58.7
78767;SHT31;68092;51.982;5.680;2024-01-15T05:05:22;7.4;58.8
78767;SHT31;68092;51.982;5.680;2024-01-15T05:07:51;7.4;58.8
78767;SHT31;68092;51.982;5.680;2024-01-15T05:10:19;7.4;58.7
78767;SHT31;68092;51.982;5.680;2024-01-15T05:12:48;7.4;58.7
78767;SHT31;68092;51.982;5.680;2024-01-15T05:15:16;7.4;58.8
78767;SHT31;68092;51.982;5.680;2024-01-15T05:17:45;7.3;59.0
78767;SHT31;68092;51.982;5.680;2024-01-15T05:20:15;7.3;58.9
78767;SHT31;68092;51.982;5.680;2024-01-15T05:22:44;7.3;59.2
78767;SHT31;68092;51.982;5.680;2024-01-15T05:25:14;7.3;59.4
78767;SHT31;68092;51.982;5.680;2024-01-15T05:27:43;7.3;59.5
78767;SHT31;68092;51.982;5.680;2024-01-15T05:30:12;7.2;59.4
78767;SHT31;68092;51.982;5.680;2024-01-15T05:32:40;7.2;59.6
78767;SHT31;68092;51.982;5.680;2024-01-15T05:35:11;7.2;59.9
78767;SHT31;68092;51.982;5.680;2024-01-15T05:37:42;7.2;60.1
78767;SHT31;68092;51.982;5.680;2024-01-15T05:40:12;7.1;60.4
78767;SHT31;68092;51.982;5.680;2024-01-15T05:42:41;7.1;60.3
78767;SHT31;68092;51.982;5.680;2024-01-15T05:45:10;7.1;60.4
78767;SHT31;68092;51.982;5.680;2024-01-15T05:47:38;7.1;60.4
78767;SHT31;68092;51.982;5.680;2024-01-15T05:50:08;7.1;60.5
78767;SHT31;68092;51.982;5.680;2024-01-15T05:52:36;7.1;60.7
78767;SHT31;68092;51.982;5.680;2024-01-15T05:55:06;7.1;60.8
78767;SHT31;68092;51.982;5.680;2024-01-15T05:57:37;7.1;60.8
78767;SHT31;68092;51.982;5.680;2024-01-15T06:00:06;7.1;60.8
78767;SHT31;68092;51.982;5.680;2024-01-15T06:02:37;7.1;60.8
78767;SHT31;68092;51.982;5.680;2024-01-15T06:05:06;7.1;61.0
78767;SHT31;68092;51.982;5.680;2024-01-15T06:07:35;7.1;61.0
78767;SHT31;68092;51.982;5.680;2024-01-15T06:10:04;7.1;61.1
78767;SHT31;68092;51.982;5.680;2024-01-15T06:12:33;7.1;61.0
78767;SHT31;68092;51.982;5.680;2024-01-15T06:15:01;7.1;61.0
78767;SHT31;68092;51.982;5.680;2024-01-15T06:17:30;7.1;61.0
78767;SHT31;68092;51.982;5.680;2024-01-15T06:19:59;7.1;61.2
78767;SHT31;68092;51.982;5.680;2024-01-15T06:22:29;7.1;61.3
78767;SHT31;68092;51.982;5.680;2024-01-15T06:24:58;7.0;61.2
78767;SHT31;68092;51.982;5.680;2024-01-15T06:27:26;7.0;61.2
78767;SHT31;68092;51.982;5.680;2024-01-15T06:29:55;7.0;61.2
78767;SHT31;68092;51.982;5.680;2024-01-15T06:32:24;7.0;61.3
78767;SHT31;68092;51.982;5.680;2024-01-15T06:34:52;7.0;61.4
78767;SHT31;68092;51.982;5.680;2024-01-15T06:37:21;7.0;61.4
78767;SHT31;68092;51.982;5.680;2024-01-15T06:39:49;7.0;61.2
78767;SHT31;68092;51.982;5.680;2024-01-15T06:42:18;7.1;60.9
78767;SHT31;68092;51.982;5.680;2024-01-15T06:44:48;7.1;60.8
78767;SHT31;68092;51.982;5.680;2024-01-15T06:47:16;7.1;60.5
78767;SHT31;68092;51.982;5.680;2024-01-15T06:49:45;7.1;60.3
78767;SHT31;68092;51.982;5.680;2024-01-15T06:52:14;7.1;60.4
78767;SHT31;68092;51.982;5.680;2024-01-15T06:54:42;7.1;60.4
78767;SHT31;68092;51.982;5.680;2024-01-15T06:57:11;7.1;60.4
78767;SHT31;68092;51.982;5.680;2024-01-15T06:59:40;7.1;60.4
78767;SHT31;68092;51.982;5.680;2024-01-15T07:02:08;7.1;60.3
78767;SHT31;68092;51.982;5.680;2024-01-15T07:04:37;7.1;60.4
78767;SHT31;68092;51.982;5.680;2024-01-15T07:07:05;7.1;60.4
78767;SHT31;68092;51.982;5.680;2024-01-15T07:09:34;7.1;60.4
78767;SHT31;68092;51.982;5.680;2024-01-15T07:12:03;7.0;60.4
78767;SHT31;68092;51.982;5.680;2024-01-15T07:14:31;7.0;60.5
78767;SHT31;68092;51.982;5.680;2024-01-15T07:17:00;7.0;60.6
78767;SHT31;68092;51.982;5.680;2024-01-15T07:19:28;7.0;60.7
78767;SHT31;68092;51.982;5.680;2024-01-15T07:21:57;7.0;60.6
78767;SHT31;68092;51.982;5.680;2024-01-15T07:24:25;7.1;60.5
78767;SHT31;68092;51.982;5.680;2024-01-15T07:26:54;7.1;60.6
78767;SHT31;68092;51.982;5.680;2024-01-15T07:29:22;7.1;60.6
78767;SHT31;68092;51.982;5.680;2024-01-15T07:31:51;7.1;60.6
78767;SHT31;68092;51.982;5.680;2024-01-15T07:34:20;7.1;60.5
78767;SHT31;68092;51.982;5.680;2024-01-15T07:36:48;7.1;60.4
78767;SHT31;68092;51.982;5.680;2024-01-15T07:39:17;7.1;60.5
78767;SHT31;68092;51.982;5.680;2024-01-15T07:41:45;7.1;60.4
78767;SHT31;68092;51.982;5.680;2024-01-15T07:44:14;7.1;60.3
78767;SHT31;68092;51.982;5.680;2024-01-15T07:46:45;7.1;60.4
78767;SHT31;68092;51.982;5.680;2024-01-15T07:49:15;7.1;60.4
78767;SHT31;68092;51.982;5.680;2024-01-15T07:51:43;7.1;60.2
78767;SHT31;68092;51.982;5.680;2024-01-15T07:54:15;7.1;60.2
78767;SHT31;68092;51.982;5.680;2024-01-15T07:56:55;7.1;60.2
78767;SHT31;68092;51.982;5.680;2024-01-15T07:59:24;7.1;60.1
78767;SHT31;68092;51.982;5.680;2024-01-15T08:01:53;7.0;60.3
78767;SHT31;68092;51.982;5.680;2024-01-15T08:04:21;7.0;60.4
78767;SHT31;68092;51.982;5.680;2024-01-15T08:06:51;7.0;60.6
78767;SHT31;68092;51.982;5.680;2024-01-15T08:09:20;7.0;60.7
78767;SHT31;68092;51.982;5.680;2024-01-15T08:11:50;7.0;60.5
78767;SHT31;68092;51.982;5.680;2024-01-15T08:14:19;7.0;60.6
78767;SHT31;68092;51.982;5.680;2024-01-15T08:16:48;6.9;60.7
78767;SHT31;68092;51.982;5.680;2024-01-15T08:19:17;6.9;60.8
78767;SHT31;68092;51.982;5.680;2024-01-15T08:21:46;6.9;61.0
78767;SHT31;68092;51.982;5.680;2024-01-15T08:24:15;6.9;61.0
78767;SHT31;68092;51.982;5.680;2024-01-15T08:26:43;6.9;61.1
78767;SHT31;68092;51.982;5.680;2024-01-15T08:29:12;6.9;61.1
78767;SHT31;68092;51.982;5.680;2024-01-15T08:31:41;6.9;61.1
78767;SHT31;68092;51.982;5.680;2024-01-15T08:34:10;6.9;61.1
78767;SHT31;68092;51.982;5.680;2024-01-15T08:36:38;6.9;61.2
78767;SHT31;68092;51.982;5.680;2024-01-15T08:39:07;6.9;61.2
78767;SHT31;68092;51.982;5.680;2024-01-15T08:41:35;6.9;61.4
78767;SHT31;68092;51.982;5.680;2024-01-15T08:44:06;6.9;61.4
78767;SHT31;68092;51.982;5.680;2024-01-15T08:46:35;6.9;61.4
78767;SHT31;68092;51.982;5.680;2024-01-15T08:49:04;6.9;61.3
78767;SHT31;68092;51.982;5.680;2024-01-15T08:51:34;6.9;61.2
78767;SHT31;68092;51.982;5.680;2024-01-15T08:54:04;6.9;61.2
78767;SHT31;68092;51.982;5.680;2024-01-15T08:56:34;6.9;61.3
78767;SHT31;68092;51.982;5.680;2024-01-15T08:59:03;6.9;61.4
78767;SHT31;68092;51.982;5.680;2024-01-15T09:01:32;7.0;61.3
78767;SHT31;68092;51.982;5.680;2024-01-15T09:04:00;7.0;61.3
78767;SHT31;68092;51.982;5.680;2024-01-15T09:06:30;7.0;61.1
78767;SHT31;68092;51.982;5.680;2024-01-15T09:08:59;7.0;61.2
78767;SHT31;68092;51.982;5.680;2024-01-15T09:11:28;7.0;61.1
78767;SHT31;68092;51.982;5.680;2024-01-15T09:13:58;7.0;61.1
78767;SHT31;68092;51.982;5.680;2024-01-15T09:16:27;7.0;61.2
78767;SHT31;68092;51.982;5.680;2024-01-15T09:18:55;7.0;61.0
78767;SHT31;68092;51.982;5.680;2024-01-15T09:21:24;7.0;61.1
78767;SHT31;68092;51.982;5.680;2024-01-15T09:23:55;7.0;61.1
78767;SHT31;68092;51.982;5.680;2024-01-15T09:26:24;7.0;61.1
78767;SHT31;68092;51.982;5.680;2024-01-15T09:28:53;7.0;61.2
78767;SHT31;68092;51.982;5.680;2024-01-15T09:31:21;7.1;61.3
78767;SHT31;68092;51.982;5.680;2024-01-15T09:33:50;7.1;61.3
78767;SHT31;68092;51.982;5.680;2024-01-15T09:36:22;7.1;61.3
78767;SHT31;68092;51.982;5.680;2024-01-15T09:38:52;7.1;61.0
78767;SHT31;68092;51.982;5.680;2024-01-15T09:41:21;7.1;60.9
78767;SHT31;68092;51.982;5.680;2024-01-15T09:43:49;7.0;60.8
78767;SHT31;68092;51.982;5.680;2024-01-15T09:46:18;7.0;60.6
78767;SHT31;68092;51.982;5.680;2024-01-15T09:48:47;7.0;60.7
78767;SHT31;68092;51.982;5.680;2024-01-15T09:51:17;7.0;60.8
78767;SHT31;68092;51.982;5.680;2024-01-15T09:53:47;6.9;60.9
78767;SHT31;68092;51.982;5.680;2024-01-15T09:56:17;6.9;61.0
78767;SHT31;68092;51.982;5.680;2024-01-15T09:58:46;6.9;61.2
78767;SHT31;68092;51.982;5.680;2024-01-15T10:01:18;6.9;61.3
78767;SHT31;68092;51.982;5.680;2024-01-15T10:03:48;6.9;61.5
78767;SHT31;68092;51.982;5.680;2024-01-15T10:06:18;6.9;61.7
78767;SHT31;68092;51.982;5.680;2024-01-15T10:08:48;6.9;62.0
78767;SHT31;68092;51.982;5.680;2024-01-15T10:11:17;6.9;62.1
78767;SHT31;68092;51.982;5.680;2024-01-15T10:13:46;6.9;62.0
78767;SHT31;68092;51.982;5.680;2024-01-15T10:16:19;6.9;61.8
78767;SHT31;68092;51.982;5.680;2024-01-15T10:18:48;6.9;61.9
78767;SHT31;68092;51.982;5.680;2024-01-15T10:21:19;6.9;62.0
78767;SHT31;68092;51.982;5.680;2024-01-15T10:23:47;6.9;62.1
78767;SHT31;68092;51.982;5.680;2024-01-15T10:26:16;6.9;61.8
78767;SHT31;68092;51.982;5.680;2024-01-15T10:28:45;6.9;61.9
78767;SHT31;68092;51.982;5.680;2024-01-15T10:31:13;6.9;62.0
78767;SHT31;68092;51.982;5.680;2024-01-15T10:33:44;6.9;62.2
78767;SHT31;68092;51.982;5.680;2024-01-15T10:36:13;6.9;62.3
78767;SHT31;68092;51.982;5.680;2024-01-15T10:38:43;6.9;63.0
78767;SHT31;68092;51.982;5.680;2024-01-15T10:41:14;6.9;63.2
78767;SHT31;68092;51.982;5.680;2024-01-15T10:43:43;6.9;63.1
78767;SHT31;68092;51.982;5.680;2024-01-15T10:46:12;6.9;63.2
78767;SHT31;68092;51.982;5.680;2024-01-15T10:48:41;6.9;63.7
78767;SHT31;68092;51.982;5.680;2024-01-15T10:51:11;6.9;63.4
78767;SHT31;68092;51.982;5.680;2024-01-15T10:53:42;6.9;63.1
78767;SHT31;68092;51.982;5.680;2024-01-15T10:56:12;7.0;62.6
78767;SHT31;68092;51.982;5.680;2024-01-15T10:58:43;7.0;62.2
78767;SHT31;68092;51.982;5.680;2024-01-15T11:01:13;7.0;61.8
78767;SHT31;68092;51.982;5.680;2024-01-15T11:03:42;7.0;61.6
78767;SHT31;68092;51.982;5.680;2024-01-15T11:06:18;7.0;61.5
78767;SHT31;68092;51.982;5.680;2024-01-15T11:08:49;7.0;61.5
78767;SHT31;68092;51.982;5.680;2024-01-15T11:11:18;7.0;61.5
78767;SHT31;68092;51.982;5.680;2024-01-15T11:13:49;7.0;61.5
78767;SHT31;68092;51.982;5.680;2024-01-15T11:16:19;7.0;61.6
78767;SHT31;68092;51.982;5.680;2024-01-15T11:19:03;7.0;61.8
78767;SHT31;68092;51.982;5.680;2024-01-15T11:21:43;7.1;61.8
78767;SHT31;68092;51.982;5.680;2024-01-15T11:24:35;7.1;61.9
78767;SHT31;68092;51.982;5.680;2024-01-15T11:27:05;7.1;61.9
78767;SHT31;68092;51.982;5.680;2024-01-15T11:29:36;7.1;62.0
78767;SHT31;68092;51.982;5.680;2024-01-15T11:32:06;7.1;62.1
78767;SHT31;68092;51.982;5.680;2024-01-15T11:34:55;7.2;61.9
78767;SHT31;68092;51.982;5.680;2024-01-15T11:37:29;7.2;61.9
78767;SHT31;68092;51.982;5.680;2024-01-15T11:40:03;7.2;62.0
78767;SHT31;68092;51.982;5.680;2024-01-15T11:42:37;7.2;62.1
78767;SHT31;68092;51.982;5.680;2024-01-15T11:45:09;7.2;62.1
78767;SHT31;68092;51.982;5.680;2024-01-15T11:50:40;7.2;61.9
78767;SHT31;68092;51.982;5.680;2024-01-15T11:53:21;7.2;62.0
78767;SHT31;68092;51.982;5.680;2024-01-15T11:55:51;7.2;62.2
78767;SHT31;68092;51.982;5.680;2024-01-15T11:58:21;7.2;62.4
78767;SHT31;68092;51.982;5.680;2024-01-15T12:00:51;7.2;62.8
78767;SHT31;68092;51.982;5.680;2024-01-15T12:03:22;7.2;62.8
78767;SHT31;68092;51.982;5.680;2024-01-15T12:05:52;7.2;62.7
78767;SHT31;68092;51.982;5.680;2024-01-15T12:08:24;7.2;62.7
78767;SHT31;68092;51.982;5.680;2024-01-15T12:10:53;7.3;62.5
78767;SHT31;68092;51.982;5.680;2024-01-15T12:13:23;7.3;62.5
78767;SHT31;68092;51.982;5.680;2024-01-15T12:15:56;7.3;62.6
78767;SHT31;68092;51.982;5.680;2024-01-15T12:18:26;7.3;62.0
78767;SHT31;68092;51.982;5.680;2024-01-15T12:20:55;7.3;62.0
78767;SHT31;68092;51.982;5.680;2024-01-15T12:23:23;7.3;61.8
78767;SHT31;68092;51.982;5.680;2024-01-15T12:25:53;7.3;61.5
78767;SHT31;68092;51.982;5.680;2024-01-15T12:28:22;7.3;61.6
78767;SHT31;68092;51.982;5.680;2024-01-15T12:30:50;7.3;61.7
78767;SHT31;68092;51.982;5.680;2024-01-15T12:33:19;7.3;62.1
78767;SHT31;68092;51.982;5.680;2024-01-15T12:35:49;7.3;62.4
78767;SHT31;68092;51.982;5.680;2024-01-15T12:38:19;7.3;62.6
78767;SHT31;68092;51.982;5.680;2024-01-15T12:40:48;7.3;62.7
78767;SHT31;68092;51.982;5.680;2024-01-15T12:43:18;7.3;62.8
78767;SHT31;68092;51.982;5.680;2024-01-15T12:45:47;7.3;63.0
78767;SHT31;68092;51.982;5.680;2024-01-15T12:48:17;7.3;62.9
78767;SHT31;68092;51.982;5.680;2024-01-15T12:50:45;7.3;62.5
78767;SHT31;68092;51.982;5.680;2024-01-15T12:53:14;7.3;62.3
78767;SHT31;68092;51.982;5.680;2024-01-15T12:55:43;7.3;62.1
78767;SHT31;68092;51.982;5.680;2024-01-15T12:58:12;7.3;61.6
78767;SHT31;68092;51.982;5.680;2024-01-15T13:00:41;7.3;61.6
78767;SHT31;68092;51.982;5.680;2024-01-15T13:03:10;7.3;61.7
78767;SHT31;68092;51.982;5.680;2024-01-15T13:05:41;7.3;61.9
78767;SHT31;68092;51.982;5.680;2024-01-15T13:08:11;7.3;61.8
78767;SHT31;68092;51.982;5.680;2024-01-15T13:10:40;7.3;61.7
78767;SHT31;68092;51.982;5.680;2024-01-15T13:13:08;7.3;61.5
78767;SHT31;68092;51.982;5.680;2024-01-15T13:15:39;7.3;61.2
78767;SHT31;68092;51.982;5.680;2024-01-15T13:18:08;7.3;60.6
78767;SHT31;68092;51.982;5.680;2024-01-15T13:20:37;7.2;60.7
78767;SHT31;68092;51.982;5.680;2024-01-15T13:23:06;7.2;60.7
78767;SHT31;68092;51.982;5.680;2024-01-15T13:25:36;7.2;60.7
78767;SHT31;68092;51.982;5.680;2024-01-15T13:28:05;7.2;60.5
78767;SHT31;68092;51.982;5.680;2024-01-15T13:30:34;7.1;60.7
78767;SHT31;68092;51.982;5.680;2024-01-15T13:33:04;7.1;61.1
78767;SHT31;68092;51.982;5.680;2024-01-15T13:35:32;7.1;61.3
78767;SHT31;68092;51.982;5.680;2024-01-15T13:38:02;7.1;61.6
78767;SHT31;68092;51.982;5.680;2024-01-15T13:40:31;7.1;61.5
78767;SHT31;68092;51.982;5.680;2024-01-15T13:42:59;7.1;61.5
78767;SHT31;68092;51.982;5.680;2024-01-15T13:45:28;7.1;61.4
78767;SHT31;68092;51.982;5.680;2024-01-15T13:47:58;7.1;61.1
78767;SHT31;68092;51.982;5.680;2024-01-15T13:50:27;7.1;61.2
78767;SHT31;68092;51.982;5.680;2024-01-15T13:52:57;7.1;61.2
78767;SHT31;68092;51.982;5.680;2024-01-15T13:55:26;7.1;61.1
78767;SHT31;68092;51.982;5.680;2024-01-15T13:57:55;7.1;61.3
78767;SHT31;68092;51.982;5.680;2024-01-15T14:00:24;7.1;61.3
78767;SHT31;68092;51.982;5.680;2024-01-15T14:02:52;7.1;61.6
78767;SHT31;68092;51.982;5.680;2024-01-15T14:05:21;7.1;61.2
78767;SHT31;68092;51.982;5.680;2024-01-15T14:07:50;7.1;61.1
78767;SHT31;68092;51.982;5.680;2024-01-15T14:10:19;7.1;61.1
78767;SHT31;68092;51.982;5.680;2024-01-15T14:12:47;7.1;60.9
78767;SHT31;68092;51.982;5.680;2024-01-15T14:15:16;7.1;60.8
78767;SHT31;68092;51.982;5.680;2024-01-15T14:17:47;7.1;60.7
78767;SHT31;68092;51.982;5.680;2024-01-15T14:20:16;7.1;60.8
78767;SHT31;68092;51.982;5.680;2024-01-15T14:22:45;7.1;60.7
78767;SHT31;68092;51.982;5.680;2024-01-15T14:25:13;7.1;60.9
78767;SHT31;68092;51.982;5.680;2024-01-15T14:27:42;7.1;60.8
78767;SHT31;68092;51.982;5.680;2024-01-15T14:30:11;7.1;61.1
78767;SHT31;68092;51.982;5.680;2024-01-15T14:32:41;7.1;61.1
78767;SHT31;68092;51.982;5.680;2024-01-15T14:35:11;7.1;61.3
78767;SHT31;68092;51.982;5.680;2024-01-15T14:37:40;7.1;61.5
78767;SHT31;68092;51.982;5.680;2024-01-15T14:40:09;7.1;61.4
78767;SHT31;68092;51.982;5.680;2024-01-15T14:42:39;7.1;61.3
78767;SHT31;68092;51.982;5.680;2024-01-15T14:45:08;7.0;61.5
78767;SHT31;68092;51.982;5.680;2024-01-15T14:47:38;7.0;61.4
78767;SHT31;68092;51.982;5.680;2024-01-15T14:50:08;7.0;61.3
78767;SHT31;68092;51.982;5.680;2024-01-15T14:52:39;7.1;61.2
78767;SHT31;68092;51.982;5.680;2024-01-15T14:55:08;7.1;60.9
78767;SHT31;68092;51.982;5.680;2024-01-15T14:57:37;7.1;60.6
78767;SHT31;68092;51.982;5.680;2024-01-15T15:00:07;7.1;60.2
78767;SHT31;68092;51.982;5.680;2024-01-15T15:02:36;7.1;60.0
78767;SHT31;68092;51.982;5.680;2024-01-15T15:05:05;7.1;59.9
78767;SHT31;68092;51.982;5.680;2024-01-15T15:07:34;7.1;60.1
78767;SHT31;68092;51.982;5.680;2024-01-15T15:10:08;7.1;60.3
78767;SHT31;68092;51.982;5.680;2024-01-15T15:12:37;7.1;60.3
78767;SHT31;68092;51.982;5.680;2024-01-15T15:15:06;7.1;60.4
78767;SHT31;68092;51.982;5.680;2024-01-15T15:17:37;7.1;60.5
78767;SHT31;68092;51.982;5.680;2024-01-15T15:20:07;7.1;60.6
78767;SHT31;68092;51.982;5.680;2024-01-15T15:22:36;7.2;60.7
78767;SHT31;68092;51.982;5.680;2024-01-15T15:25:05;7.2;60.6
78767;SHT31;68092;51.982;5.680;2024-01-15T15:27:35;7.2;60.5
78767;SHT31;68092;51.982;5.680;2024-01-15T15:30:04;7.2;60.5
78767;SHT31;68092;51.982;5.680;2024-01-15T15:32:32;7.2;60.4
78767;SHT31;68092;51.982;5.680;2024-01-15T15:35:01;7.2;60.3
78767;SHT31;68092;51.982;5.680;2024-01-15T15:37:30;7.2;60.4
78767;SHT31;68092;51.982;5.680;2024-01-15T15:39:58;7.2;60.3
78767;SHT31;68092;51.982;5.680;2024-01-15T15:42:29;7.2;60.2
78767;SHT31;68092;51.982;5.680;2024-01-15T15:44:57;7.2;60.2
78767;SHT31;68092;51.982;5.680;2024-01-15T15:47:25;7.2;60.3
78767;SHT31;68092;51.982;5.680;2024-01-15T15:49:54;7.2;60.4
78767;SHT31;68092;51.982;5.680;2024-01-15T15:52:23;7.2;60.4
78767;SHT31;68092;51.982;5.680;2024-01-15T15:54:52;7.2;60.3
78767;SHT31;68092;51.982;5.680;2024-01-15T15:57:21;7.2;60.4
78767;SHT31;68092;51.982;5.680;2024-01-15T15:59:52;7.2;60.3
78767;SHT31;68092;51.982;5.680;2024-01-15T16:02:22;7.2;60.4
78767;SHT31;68092;51.982;5.680;2024-01-15T16:04:50;7.2;60.2
78767;SHT31;68092;51.982;5.680;2024-01-15T16:07:23;7.2;59.8
78767;SHT31;68092;51.982;5.680;2024-01-15T16:09:55;7.2;59.7
78767;SHT31;68092;51.982;5.680;2024-01-15T16:12:23;7.2;59.5
78767;SHT31;68092;51.982;5.680;2024-01-15T16:14:52;7.2;59.6
78767;SHT31;68092;51.982;5.680;2024-01-15T16:17:20;7.2;59.9
78767;SHT31;68092;51.982;5.680;2024-01-15T16:19:49;7.1;59.5
78767;SHT31;68092;51.982;5.680;2024-01-15T16:22:17;7.1;59.6
78767;SHT31;68092;51.982;5.680;2024-01-15T16:24:47;7.1;59.8
78767;SHT31;68092;51.982;5.680;2024-01-15T16:27:16;7.1;59.7
78767;SHT31;68092;51.982;5.680;2024-01-15T16:29:44;7.1;60.0
78767;SHT31;68092;51.982;5.680;2024-01-15T16:32:13;7.1;60.1
78767;SHT31;68092;51.982;5.680;2024-01-15T16:34:41;7.0;59.9